sensor_id;sensor_type;location;lat;lon;timestamp;temperature;humidity
20504;DHT22;10410;51.046;6.980;2023-11-21T00:00:33;8.80;99.90
20504;DHT22;10410;51.046;6.980;2023-11-21T00:07:34;8.80;99.90
20504;DHT22;10410;51.046;6.980;2023-11-21T00:14:35;8.70;99.90
20504;DHT22;10410;51.046;6.980;2023-11-21T00:21:35;8.60;99.90
20504;DHT22;10410;51.046;6.980;2023-11-21T00:28:35;8.60;99.90
20504;DHT22;10410;51.046;6.980;2023-11-21T00:35:36;8.60;99.90
20504;DHT22;10410;51.046;6.980;2023-11-21T00:42:37;8.50;99.90
20504;DHT22;10410;51.046;6.980;2023-11-21T00:49:37;8.40;99.90
20504;DHT22;10410;51.046;6.980;2023-11-21T00:56:39;8.30;99.90
20504;DHT22;10410;51.046;6.980;2023-11-21T01:03:40;8.20;99.90
20504;DHT22;10410;51.046;6.980;2023-11-21T01:10:41;8.10;99.90
20504;DHT22;10410;51.046;6.980;2023-11-21T01:17:41;8.00;99.90
20504;DHT22;10410;51.046;6.980;2023-11-21T01:24:43;8.00;99.90
20504;DHT22;10410;51.046;6.980;2023-11-21T01:31:44;8.00;99.90
20504;DHT22;10410;51.046;6.980;2023-11-21T01:38:45;7.90;99.90
20504;DHT22;10410;51.046;6.980;2023-11-21T01:45:45;7.90;99.90
20504;DHT22;10410;51.046;6.980;2023-11-21T01:52:46;7.90;99.90
20504;DHT22;10410;51.046;6.980;2023-11-21T01:59:50;8.00;99.90
20504;DHT22;10410;51.046;6.980;2023-11-21T02:06:52;8.00;99.90
20504;DHT22;10410;51.046;6.980;2023-11-21T02:13:54;8.00;99.90
20504;DHT22;10410;51.046;6.980;2023-11-21T02:20:55;8.00;99.90
20504;DHT22;10410;51.046;6.980;2023-11-21T02:27:59;8.00;99.90
20504;DHT22;10410;51.046;6.980;2023-11-21T02:34:59;8.00;99.90
20504;DHT22;10410;51.046;6.980;2023-11-21T02:42:03;8.00;99.90
20504;DHT22;10410;51.046;6.980;2023-11-21T02:49:04;7.90;99.90
20504;DHT22;10410;51.046;6.980;2023-11-21T02:56:06;8.00;99.90
20504;DHT22;10410;51.046;6.980;2023-11-21T03:03:07;8.10;99.90
20504;DHT22;10410;51.046;6.980;2023-11-21T03:10:09;8.10;99.90
20504;DHT22;10410;51.046;6.980;2023-11-21T03:17:11;8.10;99.90
20504;DHT22;10410;51.046;6.980;2023-11-21T03:24:12;8.10;99.90
20504;DHT22;10410;51.046;6.980;2023-11-21T03:31:13;8.20;99.90
20504;DHT22;10410;51.046;6.980;2023-11-21T03:38:13;8.20;99.90
20504;DHT22;10410;51.046;6.980;2023-11-21T03:45:14;8.20;99.90
20504;DHT22;10410;51.046;6.980;2023-11-21T03:52:14;8.20;99.90
20504;DHT22;10410;51.046;6.980;2023-11-21T03:59:15;8.10;99.90
20504;DHT22;10410;51.046;6.980;2023-11-21T04:06:16;8.10;99.90
20504;DHT22;10410;51.046;6.980;2023-11-21T04:13:17;8.20;99.90
20504;DHT22;10410;51.046;6.980;2023-11-21T04:20:18;8.20;99.90
20504;DHT22;10410;51.046;6.980;2023-11-21T04:27:18;8.10;99.90
20504;DHT22;10410;51.046;6.980;2023-11-21T04:34:19;8.20;99.90
20504;DHT22;10410;51.046;6.980;2023-11-21T04:41:19;8.20;99.90
20504;DHT22;10410;51.046;6.980;2023-11-21T04:48:20;8.20;99.90
20504;DHT22;10410;51.046;6.980;2023-11-21T04:55:20;8.20;99.90
20504;DHT22;10410;51.046;6.980;2023-11-21T05:02:21;8.20;99.90
20504;DHT22;10410;51.046;6.980;2023-11-21T05:09:34;8.20;99.90
20504;DHT22;10410;51.046;6.980;2023-11-21T05:16:35;8.20;99.90
20504;DHT22;10410;51.046;6.980;2023-11-21T05:23:36;8.20;99.90
20504;DHT22;10410;51.046;6.980;2023-11-21T05:30:37;8.20;99.90
20504;DHT22;10410;51.046;6.980;2023-11-21T05:37:39;8.30;99.90
20504;DHT22;10410;51.046;6.980;2023-11-21T05:44:41;8.30;99.90
20504;DHT22;10410;51.046;6.980;2023-11-21T05:51:42;8.30;99.90
20504;DHT22;10410;51.046;6.980;2023-11-21T05:58:42;8.20;99.90
20504;DHT22;10410;51.046;6.980;2023-11-21T06:05:43;8.20;99.90
20504;DHT22;10410;51.046;6.980;2023-11-21T06:12:43;8.20;99.90
20504;DHT22;10410;51.046;6.980;2023-11-21T06:19:44;8.10;99.90
20504;DHT22;10410;51.046;6.980;2023-11-21T06:26:46;8.10;99.90
20504;DHT22;10410;51.046;6.980;2023-11-21T06:33:48;8.10;99.90
20504;DHT22;10410;51.046;6.980;2023-11-21T06:40:50;8.10;99.90
20504;DHT22;10410;51.046;6.980;2023-11-21T06:47:50;8.00;99.90
20504;DHT22;10410;51.046;6.980;2023-11-21T06:54:51;8.00;99.90
20504;DHT22;10410;51.046;6.980;2023-11-21T07:01:52;8.00;99.90
20504;DHT22;10410;51.046;6.980;2023-11-21T07:08:52;8.00;99.90
20504;DHT22;10410;51.046;6.980;2023-11-21T07:15:53;8.00;99.90
20504;DHT22;10410;51.046;6.980;2023-11-21T07:22:54;8.00;99.90
20504;DHT22;10410;51.046;6.980;2023-11-21T07:29:56;8.00;99.90
20504;DHT22;10410;51.046;6.980;2023-11-21T07:36:57;8.00;99.90
20504;DHT22;10410;51.046;6.980;2023-11-21T07:43:58;8.10;99.90
20504;DHT22;10410;51.046;6.980;2023-11-21T07:51:01;8.20;99.90
20504;DHT22;10410;51.046;6.980;2023-11-21T07:58:03;8.20;99.90
20504;DHT22;10410;51.046;6.980;2023-11-21T08:05:04;8.30;99.90
20504;DHT22;10410;51.046;6.980;2023-11-21T08:12:04;8.40;99.90
20504;DHT22;10410;51.046;6.980;2023-11-21T08:19:05;8.50;99.90
20504;DHT22;10410;51.046;6.980;2023-11-21T08:26:06;8.50;99.90
20504;DHT22;10410;51.046;6.980;2023-11-21T08:33:07;8.60;99.90
20504;DHT22;10410;51.046;6.980;2023-11-21T08:40:08;8.60;99.90
20504;DHT22;10410;51.046;6.980;2023-11-21T08:47:16;8.60;99.90
20504;DHT22;10410;51.046;6.980;2023-11-21T08:54:17;8.60;99.90
20504;DHT22;10410;51.046;6.980;2023-11-21T09:01:17;8.70;99.90
20504;DHT22;10410;51.046;6.980;2023-11-21T09:08:17;8.80;99.90
20504;DHT22;10410;51.046;6.980;2023-11-21T09:15:18;8.90;99.90
20504;DHT22;10410;51.046;6.980;2023-11-21T09:22:20;8.90;99.90
20504;DHT22;10410;51.046;6.980;2023-11-21T09:29:20;9.00;99.90
20504;DHT22;10410;51.046;6.980;2023-11-21T09:36:21;9.00;99.90
20504;DHT22;10410;51.046;6.980;2023-11-21T09:43:28;9.00;99.90
20504;DHT22;10410;51.046;6.980;2023-11-21T09:50:29;9.00;99.90
20504;DHT22;10410;51.046;6.980;2023-11-21T09:57:29;9.10;99.90
20504;DHT22;10410;51.046;6.980;2023-11-21T10:04:31;9.10;99.90
20504;DHT22;10410;51.046;6.980;2023-11-21T10:11:32;9.00;99.90
20504;DHT22;10410;51.046;6.980;2023-11-21T10:18:34;9.00;99.90
20504;DHT22;10410;51.046;6.980;2023-11-21T10:25:34;9.00;99.90
20504;DHT22;10410;51.046;6.980;2023-11-21T10:32:36;9.00;99.90
20504;DHT22;10410;51.046;6.980;2023-11-21T10:39:38;9.20;99.90
20504;DHT22;10410;51.046;6.980;2023-11-21T10:46:39;9.20;99.90
20504;DHT22;10410;51.046;6.980;2023-11-21T10:53:40;9.30;99.90
20504;DHT22;10410;51.046;6.980;2023-11-21T11:00:45;9.30;99.90
20504;DHT22;10410;51.046;6.980;2023-11-21T11:07:48;9.40;99.90
20504;DHT22;10410;51.046;6.980;2023-11-21T11:14:52;9.40;99.90
20504;DHT22;10410;51.046;6.980;2023-11-21T11:29:35;9.50;99.90
20504;DHT22;10410;51.046;6.980;2023-11-21T11:36:52;9.50;99.90
20504;DHT22;10410;51.046;6.980;2023-11-21T11:43:55;9.50;99.90
20504;DHT22;10410;51.046;6.980;2023-11-21T11:58:14;9.70;99.90
20504;DHT22;10410;51.046;6.980;2023-11-21T12:05:17;9.80;99.90
20504;DHT22;10410;51.046;6.980;2023-11-21T12:12:22;9.80;99.90
20504;DHT22;10410;51.046;6.980;2023-11-21T12:19:23;9.80;99.90
20504;DHT22;10410;51.046;6.980;2023-11-21T12:26:27;9.80;99.90
20504;DHT22;10410;51.046;6.980;2023-11-21T12:33:27;9.90;99.90
20504;DHT22;10410;51.046;6.980;2023-11-21T12:40:29;9.90;99.90
20504;DHT22;10410;51.046;6.980;2023-11-21T12:47:29;9.80;99.90
20504;DHT22;10410;51.046;6.980;2023-11-21T12:54:30;9.80;99.90
20504;DHT22;10410;51.046;6.980;2023-11-21T13:01:30;9.80;99.90
20504;DHT22;10410;51.046;6.980;2023-11-21T13:08:31;9.90;99.90
20504;DHT22;10410;51.046;6.980;2023-11-21T13:15:32;9.90;99.90
20504;DHT22;10410;51.046;6.980;2023-11-21T13:22:35;10.00;99.90
20504;DHT22;10410;51.046;6.980;2023-11-21T13:29:35;10.00;99.90
20504;DHT22;10410;51.046;6.980;2023-11-21T13:36:36;10.10;99.90
20504;DHT22;10410;51.046;6.980;2023-11-21T13:43:36;10.20;99.90
20504;DHT22;10410;51.046;6.980;2023-11-21T13:50:37;10.10;99.90
20504;DHT22;10410;51.046;6.980;2023-11-21T13:57:39;10.20;99.90
20504;DHT22;10410;51.046;6.980;2023-11-21T14:04:39;10.20;99.90
20504;DHT22;10410;51.046;6.980;2023-11-21T14:11:55;10.20;99.90
20504;DHT22;10410;51.046;6.980;2023-11-21T14:18:57;10.20;99.90
20504;DHT22;10410;51.046;6.980;2023-11-21T14:26:05;10.20;99.90
20504;DHT22;10410;51.046;6.980;2023-11-21T14:33:06;10.20;99.90
20504;DHT22;10410;51.046;6.980;2023-11-21T14:40:09;10.20;99.90
20504;DHT22;10410;51.046;6.980;2023-11-21T14:47:10;10.20;99.90
20504;DHT22;10410;51.046;6.980;2023-11-21T14:54:15;10.20;99.90
20504;DHT22;10410;51.046;6.980;2023-11-21T15:01:24;10.20;99.90
20504;DHT22;10410;51.046;6.980;2023-11-21T15:08:54;10.10;99.90
20504;DHT22;10410;51.046;6.980;2023-11-21T15:16:09;10.10;99.90
20504;DHT22;10410;51.046;6.980;2023-11-21T15:23:12;10.00;99.90
20504;DHT22;10410;51.046;6.980;2023-11-21T15:30:13;10.00;99.90
20504;DHT22;10410;51.046;6.980;2023-11-21T15:37:14;9.90;99.90
20504;DHT22;10410;51.046;6.980;2023-11-21T15:44:14;9.90;99.90
20504;DHT22;10410;51.046;6.980;2023-11-21T15:51:16;9.90;99.90
20504;DHT22;10410;51.046;6.980;2023-11-21T15:58:17;9.90;99.90
20504;DHT22;10410;51.046;6.980;2023-11-21T16:05:18;9.80;99.90
20504;DHT22;10410;51.046;6.980;2023-11-21T16:12:19;9.80;99.90
20504;DHT22;10410;51.046;6.980;2023-11-21T16:19:23;9.80;99.90
20504;DHT22;10410;51.046;6.980;2023-11-21T16:26:25;9.70;99.90
20504;DHT22;10410;51.046;6.980;2023-11-21T16:33:25;9.70;99.90
20504;DHT22;10410;51.046;6.980;2023-11-21T16:40:26;9.70;99.90
20504;DHT22;10410;51.046;6.980;2023-11-21T16:47:27;9.70;99.90
20504;DHT22;10410;51.046;6.980;2023-11-21T16:54:30;9.70;99.90
20504;DHT22;10410;51.046;6.980;2023-11-21T17:01:31;9.60;99.90
20504;DHT22;10410;51.046;6.980;2023-11-21T17:08:32;9.60;99.90
20504;DHT22;10410;51.046;6.980;2023-11-21T17:15:32;9.50;99.90
20504;DHT22;10410;51.046;6.980;2023-11-21T17:22:33;9.50;99.90
20504;DHT22;10410;51.046;6.980;2023-11-21T17:29:34;9.40;99.90
20504;DHT22;10410;51.046;6.980;2023-11-21T17:36:35;9.40;99.90
20504;DHT22;10410;51.046;6.980;2023-11-21T17:43:35;9.30;99.90
20504;DHT22;10410;51.046;6.980;2023-11-21T17:50:39;9.20;99.90
20504;DHT22;10410;51.046;6.980;2023-11-21T17:57:40;9.00;99.90
20504;DHT22;10410;51.046;6.980;2023-11-21T18:04:40;8.90;99.90
20504;DHT22;10410;51.046;6.980;2023-11-21T18:11:41;8.80;99.90
20504;DHT22;10410;51.046;6.980;2023-11-21T18:18:42;8.70;99.90
20504;DHT22;10410;51.046;6.980;2023-11-21T18:25:42;8.60;99.90
20504;DHT22;10410;51.046;6.980;2023-11-21T18:32:43;8.50;99.90
20504;DHT22;10410;51.046;6.980;2023-11-21T18:39:44;8.30;99.90
20504;DHT22;10410;51.046;6.980;2023-11-21T18:46:45;8.10;99.90
20504;DHT22;10410;51.046;6.980;2023-11-21T18:53:46;8.00;99.90
20504;DHT22;10410;51.046;6.980;2023-11-21T19:00:47;7.80;99.90
20504;DHT22;10410;51.046;6.980;2023-11-21T19:07:48;7.80;99.90
20504;DHT22;10410;51.046;6.980;2023-11-21T19:14:49;7.70;99.90
20504;DHT22;10410;51.046;6.980;2023-11-21T19:21:51;7.70;99.90
20504;DHT22;10410;51.046;6.980;2023-11-21T19:28:52;7.70;99.90
20504;DHT22;10410;51.046;6.980;2023-11-21T19:35:53;7.70;99.90
20504;DHT22;10410;51.046;6.980;2023-11-21T19:42:53;7.70;99.90
20504;DHT22;10410;51.046;6.980;2023-11-21T19:49:53;7.70;99.90
20504;DHT22;10410;51.046;6.980;2023-11-21T19:56:54;7.60;99.90
20504;DHT22;10410;51.046;6.980;2023-11-21T20:03:55;7.60;99.90
20504;DHT22;10410;51.046;6.980;2023-11-21T20:10:56;7.50;99.90
20504;DHT22;10410;51.046;6.980;2023-11-21T20:17:56;7.50;99.90
20504;DHT22;10410;51.046;6.980;2023-11-21T20:24:57;7.40;99.90
20504;DHT22;10410;51.046;6.980;2023-11-21T20:31:58;7.30;99.90
20504;DHT22;10410;51.046;6.980;2023-11-21T20:38:58;7.30;99.90
20504;DHT22;10410;51.046;6.980;2023-11-21T20:45:59;7.20;99.90
20504;DHT22;10410;51.046;6.980;2023-11-21T20:52:59;7.10;99.90
20504;DHT22;10410;51.046;6.980;2023-11-21T21:00:00;7.10;99.90
20504;DHT22;10410;51.046;6.980;2023-11-21T21:07:00;7.00;99.90
20504;DHT22;10410;51.046;6.980;2023-11-21T21:14:01;7.00;99.90
20504;DHT22;10410;51.046;6.980;2023-11-21T21:21:02;7.00;99.90
20504;DHT22;10410;51.046;6.980;2023-11-21T21:28:02;7.00;99.90
20504;DHT22;10410;51.046;6.980;2023-11-21T21:35:04;7.00;99.90
20504;DHT22;10410;51.046;6.980;2023-11-21T21:42:05;7.00;99.90
20504;DHT22;10410;51.046;6.980;2023-11-21T21:49:06;6.90;99.90
20504;DHT22;10410;51.046;6.980;2023-11-21T21:56:07;6.90;99.90
20504;DHT22;10410;51.046;6.980;2023-11-21T22:03:08;6.90;99.90
20504;DHT22;10410;51.046;6.980;2023-11-21T22:10:09;6.90;99.90
20504;DHT22;10410;51.046;6.980;2023-11-21T22:17:10;6.80;99.90
20504;DHT22;10410;51.046;6.980;2023-11-21T22:24:11;6.80;99.90
20504;DHT22;10410;51.046;6.980;2023-11-21T22:31:11;6.70;99.90
20504;DHT22;10410;51.046;6.980;2023-11-21T22:38:12;6.60;99.90
20504;DHT22;10410;51.046;6.980;2023-11-21T22:45:16;6.50;99.90
20504;DHT22;10410;51.046;6.980;2023-11-21T22:52:16;6.40;99.90
20504;DHT22;10410;51.046;6.980;2023-11-21T22:59:17;6.30;99.90
20504;DHT22;10410;51.046;6.980;2023-11-21T23:06:18;6.10;99.90
20504;DHT22;10410;51.046;6.980;2023-11-21T23:13:19;6.00;99.90
20504;DHT22;10410;51.046;6.980;2023-11-21T23:20:19;5.80;99.90
20504;DHT22;10410;51.046;6.980;2023-11-21T23:27:21;5.70;99.90
20504;DHT22;10410;51.046;6.980;2023-11-21T23:34:22;5.60;99.90
20504;DHT22;10410;51.046;6.980;2023-11-21T23:41:22;5.50;99.90
20504;DHT22;10410;51.046;6.980;2023-11-21T23:48:23;5.50;99.90
20504;DHT22;10410;51.046;6.980;2023-11-21T23:55:24;5.40;99.90
